Time;durP1;ratioP1;P1;durP2;ratioP2;P2;SDS_P1;SDS_P2;PMS_P1;PMS_P2;Temp;Humidity;BMP_temperature;BMP_pressure;BME280_temperature;BME280_humidity;BME280_pressure;Samples;Min_cycle;Max_cycle;Signal;HPM_P1;HPM_P2
2022/02/26 00:01:47;;;;;;;;;;;2.60;99.90;;;;;;4874969;29;19932;-82
2022/02/26 00:04:17;;;;;;;;;;;2.60;99.90;;;;;;4860326;29;19928;-83
2022/02/26 00:06:45;;;;;;;;;;;2.60;99.90;;;;;;4877887;29;19936;-83
2022/02/26 00:09:26;;;;;;;;;;;2.50;99.90;;;;;;4859971;29;19944;-82
2022/02/26 00:11:54;;;;;;;;;;;2.60;99.90;;;;;;4874478;29;19932;-82
2022/02/26 00:14:28;;;;;;;;;;;2.60;99.90;;;;;;4859978;29;19939;-81
2022/02/26 00:16:57;;;;;;;;;;;2.60;99.90;;;;;;4876569;29;19940;-83
2022/02/26 00:19:31;;;;;;;;;;;2.60;99.90;;;;;;4873861;29;19936;-83
2022/02/26 00:22:05;;;;;;;;;;;2.60;99.90;;;;;;4856431;29;19932;-84
2022/02/26 00:24:50;;;;;;;;;;;4.10;99.90;;;;;;4858184;29;19936;-85
2022/02/26 00:27:42;;;;;;;;;;;2.70;99.90;;;;;;4871490;29;19932;-88
2022/02/26 00:30:20;;;;;;;;;;;2.60;99.90;;;;;;4842762;29;19932;-86
2022/02/26 00:33:15;;;;;;;;;;;3.40;99.90;;;;;;4874090;29;19939;-85
2022/02/26 00:35:44;;;;;;;;;;;2.80;99.90;;;;;;4857706;29;19935;-85
2022/02/26 00:38:15;;;;;;;;;;;2.70;99.90;;;;;;4872396;29;19929;-86
2022/02/26 00:40:54;;;;;;;;;;;2.80;99.90;;;;;;4855466;29;19933;-86
2022/02/26 00:43:54;;;;;;;;;;;1.90;99.90;;;;;;4853752;29;19936;-88
2022/02/26 00:46:36;;;;;;;;;;;2.60;99.90;;;;;;4832524;29;19939;-84
2022/02/26 00:49:46;;;;;;;;;;;0.90;99.90;;;;;;4847887;29;19928;-88
2022/02/26 00:52:38;;;;;;;;;;;2.50;99.90;;;;;;4823575;29;19944;-84
2022/02/26 00:55:22;;;;;;;;;;;2.60;99.90;;;;;;4854968;29;19932;-85
2022/02/26 00:58:03;;;;;;;;;;;2.60;99.90;;;;;;4855269;29;19939;-88
2022/02/26 01:01:00;;;;;;;;;;;2.50;99.90;;;;;;4843235;29;19935;-85
2022/02/26 01:03:46;;;;;;;;;;;2.50;99.90;;;;;;4842650;29;19929;-85
2022/02/26 01:06:19;;;;;;;;;;;1.10;99.90;;;;;;4826298;29;19932;-84
2022/02/26 01:08:54;;;;;;;;;;;2.60;99.90;;;;;;4820957;29;19929;-84
2022/02/26 01:12:07;;;;;;;;;;;2.60;99.90;;;;;;4795463;29;19935;-84
2022/02/26 01:15:16;;;;;;;;;;;2.50;99.90;;;;;;4844482;29;20537;-86
2022/02/26 01:18:20;;;;;;;;;;;2.40;99.90;;;;;;4855074;29;20777;-85
2022/02/26 01:21:01;;;;;;;;;;;2.50;99.90;;;;;;4873101;29;19943;-83
2022/02/26 01:24:11;;;;;;;;;;;2.30;99.90;;;;;;4867205;29;19943;-85
2022/02/26 01:26:58;;;;;;;;;;;1.00;99.90;;;;;;4841125;29;19929;-84
2022/02/26 01:29:59;;;;;;;;;;;2.40;99.90;;;;;;4821103;29;19943;-84
2022/02/26 01:32:49;;;;;;;;;;;2.40;99.90;;;;;;4854841;29;19939;-85
2022/02/26 01:35:43;;;;;;;;;;;0.60;99.90;;;;;;4837324;29;19928;-85
2022/02/26 01:38:26;;;;;;;;;;;2.20;99.90;;;;;;4853982;29;19936;-83
2022/02/26 01:41:13;;;;;;;;;;;2.40;99.90;;;;;;4862041;29;19944;-83
2022/02/26 01:44:04;;;;;;;;;;;2.30;99.90;;;;;;4821914;29;19932;-84
2022/02/26 01:46:35;;;;;;;;;;;2.20;99.90;;;;;;4849804;29;19935;-83
2022/02/26 01:49:20;;;;;;;;;;;2.10;99.90;;;;;;4517578;29;10000539;-83
2022/02/26 01:51:50;;;;;;;;;;;1.70;99.90;;;;;;4847598;29;19932;-83
2022/02/26 01:55:18;;;;;;;;;;;0.50;99.90;;;;;;4841411;29;19935;-83
2022/02/26 01:58:04;;;;;;;;;;;2.10;99.90;;;;;;4864877;29;19928;-83
2022/02/26 02:00:41;;;;;;;;;;;0.60;99.90;;;;;;4855449;29;19928;-84
2022/02/26 02:03:17;;;;;;;;;;;2.00;99.90;;;;;;4858010;29;19936;-84
2022/02/26 02:05:48;;;;;;;;;;;2.20;99.90;;;;;;4857147;29;19936;-89
2022/02/26 02:08:26;;;;;;;;;;;1.10;99.90;;;;;;4866877;29;20028;-85
2022/02/26 02:11:11;;;;;;;;;;;2.50;99.90;;;;;;4830777;29;19938;-84
2022/02/26 02:13:52;;;;;;;;;;;2.00;99.90;;;;;;4871719;29;19932;-83
2022/02/26 02:16:28;;;;;;;;;;;2.00;99.90;;;;;;4859260;29;19935;-86
2022/02/26 02:19:08;;;;;;;;;;;1.30;99.90;;;;;;4864561;29;19939;-82
2022/02/26 02:21:42;;;;;;;;;;;2.20;99.90;;;;;;4854053;29;19937;-87
2022/02/26 02:24:16;;;;;;;;;;;1.90;99.90;;;;;;4842135;29;19935;-87
2022/02/26 02:26:53;;;;;;;;;;;1.20;99.90;;;;;;4838893;29;19937;-86
2022/02/26 02:29:54;;;;;;;;;;;;;;;;;;;;;
2022/02/26 02:32:36;;;;;;;;;;;2.50;99.90;;;;;;4848933;29;19932;-84
2022/02/26 02:35:30;;;;;;;;;;;2.10;99.90;;;;;;4873142;29;19925;-83
2022/02/26 02:38:09;;;;;;;;;;;2.00;99.90;;;;;;4860960;29;19934;-90
2022/02/26 02:40:46;;;;;;;;;;;1.70;99.90;;;;;;4848300;29;19934;-85
2022/02/26 02:43:28;;;;;;;;;;;1.80;99.90;;;;;;4846277;29;19932;-84
2022/02/26 02:46:03;;;;;;;;;;;2.00;99.90;;;;;;4844229;29;19936;-85
2022/02/26 02:48:46;;;;;;;;;;;1.80;99.90;;;;;;4849293;29;19933;-85
2022/02/26 02:51:29;;;;;;;;;;;0.70;99.90;;;;;;4872608;29;19939;-83
2022/02/26 02:54:25;;;;;;;;;;;0.50;99.90;;;;;;4868353;29;20264;-84
2022/02/26 02:57:26;;;;;;;;;;;2.00;99.90;;;;;;4836504;29;19928;-82
2022/02/26 03:00:07;;;;;;;;;;;1.60;99.90;;;;;;4869621;29;19936;-83
2022/02/26 03:02:41;;;;;;;;;;;1.00;99.90;;;;;;4871048;29;19933;-85
2022/02/26 03:05:22;;;;;;;;;;;;;;;;;;;;;
2022/02/26 03:08:07;;;;;;;;;;;1.70;99.90;;;;;;4862649;29;19934;-86
2022/02/26 03:11:15;;;;;;;;;;;2.40;99.90;;;;;;4840479;29;19943;-84
2022/02/26 03:13:59;;;;;;;;;;;1.60;99.90;;;;;;4857051;29;19928;-88
2022/02/26 03:16:39;;;;;;;;;;;1.70;99.90;;;;;;4842385;29;19928;-85
2022/02/26 03:19:25;;;;;;;;;;;1.70;99.90;;;;;;4853042;29;20007;-84
2022/02/26 03:22:05;;;;;;;;;;;1.60;99.90;;;;;;4847348;29;19933;-84
2022/02/26 03:24:48;;;;;;;;;;;1.60;99.90;;;;;;4845238;29;19942;-83
2022/02/26 03:27:51;;;;;;;;;;;0.00;99.90;;;;;;4848967;29;19928;-85
2022/02/26 03:30:34;;;;;;;;;;;1.40;99.90;;;;;;4866199;29;20137;-84
2022/02/26 03:33:16;;;;;;;;;;;1.40;99.90;;;;;;4848890;29;19938;-83
2022/02/26 03:35:59;;;;;;;;;;;1.40;99.90;;;;;;4871494;29;20527;-85
2022/02/26 03:38:38;;;;;;;;;;;1.80;99.90;;;;;;4854067;29;19928;-86
2022/02/26 03:41:13;;;;;;;;;;;1.50;99.90;;;;;;4846965;29;19934;-85
2022/02/26 03:43:46;;;;;;;;;;;1.30;99.90;;;;;;4850597;29;19937;-86
2022/02/26 03:46:20;;;;;;;;;;;1.30;99.90;;;;;;4855872;29;19936;-85
2022/02/26 03:49:07;;;;;;;;;;;1.30;99.90;;;;;;4856279;29;19932;-85
2022/02/26 03:51:42;;;;;;;;;;;2.00;99.90;;;;;;4845784;29;19935;-83
2022/02/26 03:54:11;;;;;;;;;;;1.40;99.90;;;;;;4857029;29;19943;-86
2022/02/26 03:56:43;;;;;;;;;;;0.90;99.90;;;;;;4848847;29;19936;-83
2022/02/26 03:59:11;;;;;;;;;;;1.20;99.90;;;;;;4841888;29;19935;-86
2022/02/26 04:02:03;;;;;;;;;;;1.50;99.90;;;;;;4849514;29;19936;-84
2022/02/26 04:04:54;;;;;;;;;;;1.10;99.90;;;;;;4857190;29;19937;-83
2022/02/26 04:07:58;;;;;;;;;;;1.20;99.90;;;;;;4832622;29;20734;-84
2022/02/26 04:10:35;;;;;;;;;;;0.70;99.90;;;;;;4844587;29;19939;-83
2022/02/26 04:13:09;;;;;;;;;;;1.10;99.90;;;;;;4865108;29;19935;-85
2022/02/26 04:15:45;;;;;;;;;;;1.20;99.90;;;;;;4874820;29;19942;-84
2022/02/26 04:18:27;;;;;;;;;;;3.10;99.90;;;;;;4859988;29;19942;-85
2022/02/26 04:20:58;;;;;;;;;;;1.30;99.90;;;;;;4871522;29;19934;-84
2022/02/26 04:23:38;;;;;;;;;;;1.10;99.90;;;;;;4873306;29;19935;-83
2022/02/26 04:26:25;;;;;;;;;;;;;;;;;;;;;
2022/02/26 04:29:09;;;;;;;;;;;1.10;99.90;;;;;;4861681;29;20387;-86
2022/02/26 04:31:52;;;;;;;;;;;;;;;;;;;;;
2022/02/26 04:34:41;;;;;;;;;;;1.20;99.90;;;;;;4841970;29;19928;-84
2022/02/26 04:37:29;;;;;;;;;;;1.40;99.90;;;;;;4840683;29;19936;-84
2022/02/26 04:40:09;;;;;;;;;;;1.20;99.90;;;;;;4842687;29;19933;-85
2022/02/26 04:43:04;;;;;;;;;;;0.70;99.90;;;;;;4853096;29;19939;-89
2022/02/26 04:45:41;;;;;;;;;;;1.20;99.90;;;;;;4835527;29;19932;-85
2022/02/26 04:48:15;;;;;;;;;;;-0.20;99.90;;;;;;4845712;29;19928;-84
2022/02/26 04:51:08;;;;;;;;;;;1.00;99.90;;;;;;4841973;29;19932;-87
2022/02/26 04:53:37;;;;;;;;;;;1.00;99.90;;;;;;4846525;29;19939;-84
2022/02/26 04:56:12;;;;;;;;;;;1.20;99.90;;;;;;4828208;29;19928;-85
2022/02/26 04:58:52;;;;;;;;;;;0.90;99.90;;;;;;4857101;29;19928;-84
2022/02/26 05:01:27;;;;;;;;;;;1.30;99.90;;;;;;4856040;29;20474;-83
2022/02/26 05:04:12;;;;;;;;;;;0.80;99.90;;;;;;4836620;29;19933;-83
2022/02/26 05:06:50;;;;;;;;;;;1.00;99.90;;;;;;4836903;29;19928;-83
2022/02/26 05:09:36;;;;;;;;;;;1.00;99.90;;;;;;4865990;29;19939;-83
2022/02/26 05:12:26;;;;;;;;;;;1.10;99.90;;;;;;4866698;29;19943;-86
2022/02/26 05:14:59;;;;;;;;;;;1.00;99.90;;;;;;4855672;29;19939;-85
2022/02/26 05:17:53;;;;;;;;;;;1.10;99.90;;;;;;4874409;29;19928;-83
2022/02/26 05:20:35;;;;;;;;;;;0.40;99.90;;;;;;4855882;29;19932;-85
2022/02/26 05:23:27;;;;;;;;;;;1.30;99.90;;;;;;4856868;29;19936;-84
2022/02/26 05:26:11;;;;;;;;;;;1.10;99.90;;;;;;4840552;29;19940;-87
2022/02/26 05:29:04;;;;;;;;;;;1.20;99.90;;;;;;4846349;29;19928;-85
2022/02/26 05:31:59;;;;;;;;;;;1.00;99.90;;;;;;4855789;29;19943;-86
2022/02/26 05:34:43;;;;;;;;;;;;;;;;;;;;;
2022/02/26 05:37:15;;;;;;;;;;;1.00;99.90;;;;;;4846768;29;19928;-88
2022/02/26 05:39:51;;;;;;;;;;;1.00;99.90;;;;;;4858234;29;19939;-86
2022/02/26 05:42:43;;;;;;;;;;;;;;;;;;;;;
2022/02/26 05:45:18;;;;;;;;;;;1.20;99.90;;;;;;4856605;29;19932;-84
2022/02/26 05:47:52;;;;;;;;;;;1.20;99.90;;;;;;4857213;29;20007;-84
2022/02/26 05:50:23;;;;;;;;;;;1.10;99.90;;;;;;4856637;29;19935;-82
2022/02/26 05:53:09;;;;;;;;;;;;;;;;;;;;;
2022/02/26 05:56:03;;;;;;;;;;;1.00;99.90;;;;;;4860545;29;19928;-84
2022/02/26 05:58:52;;;;;;;;;;;-0.70;99.90;;;;;;4860078;29;19936;-83
2022/02/26 06:01:24;;;;;;;;;;;1.90;99.90;;;;;;4859758;29;19932;-83
2022/02/26 06:04:00;;;;;;;;;;;0.70;99.90;;;;;;4871607;29;19939;-84
2022/02/26 06:06:46;;;;;;;;;;;0.90;99.90;;;;;;4840840;29;19939;-84
2022/02/26 06:09:18;;;;;;;;;;;1.30;99.90;;;;;;4871548;29;19943;-83
2022/02/26 06:11:56;;;;;;;;;;;0.80;99.90;;;;;;4847448;29;19928;-83
2022/02/26 06:14:56;;;;;;;;;;;0.60;99.90;;;;;;4841981;29;19928;-83
2022/02/26 06:17:35;;;;;;;;;;;2.80;99.90;;;;;;4850389;29;19928;-82
2022/02/26 06:20:29;;;;;;;;;;;0.70;99.90;;;;;;4820738;29;19937;-83
2022/02/26 06:23:01;;;;;;;;;;;0.70;99.90;;;;;;4837244;29;19928;-83
2022/02/26 06:25:54;;;;;;;;;;;2.50;99.90;;;;;;4855833;29;20322;-83
2022/02/26 06:28:30;;;;;;;;;;;0.70;99.90;;;;;;4838979;29;19933;-83
2022/02/26 06:31:08;;;;;;;;;;;0.90;99.90;;;;;;4825201;29;19929;-85
2022/02/26 06:33:37;;;;;;;;;;;0.80;99.90;;;;;;4838298;29;19928;-84
2022/02/26 06:36:12;;;;;;;;;;;0.70;99.90;;;;;;4854332;29;19929;-83
2022/02/26 06:41:43;;;;;;;;;;;0.90;99.90;;;;;;4855703;29;19932;-83
2022/02/26 06:44:22;;;;;;;;;;;0.70;99.90;;;;;;4875711;29;19928;-83
2022/02/26 06:46:59;;;;;;;;;;;0.70;99.90;;;;;;4840763;29;19938;-84
2022/02/26 06:49:39;;;;;;;;;;;0.70;99.90;;;;;;4840479;29;19933;-83
2022/02/26 06:52:17;;;;;;;;;;;0.70;99.90;;;;;;4855968;29;20365;-86
2022/02/26 06:54:47;;;;;;;;;;;0.00;99.90;;;;;;4856154;29;19924;-83
2022/02/26 06:57:37;;;;;;;;;;;0.90;99.90;;;;;;4856107;29;19932;-83
2022/02/26 07:00:31;;;;;;;;;;;0.80;99.90;;;;;;4855474;29;19935;-81
2022/02/26 07:03:08;;;;;;;;;;;1.00;99.90;;;;;;4858359;29;19932;-84
2022/02/26 07:05:43;;;;;;;;;;;0.70;99.90;;;;;;4874581;29;20620;-83
2022/02/26 07:08:18;;;;;;;;;;;0.60;99.90;;;;;;4844783;29;20576;-85
2022/02/26 07:11:04;;;;;;;;;;;0.70;99.90;;;;;;4858467;29;19932;-84
2022/02/26 07:13:47;;;;;;;;;;;0.70;99.90;;;;;;4893093;29;19928;-86
2022/02/26 07:16:27;;;;;;;;;;;0.70;99.90;;;;;;4880451;29;19939;-85
2022/02/26 07:19:18;;;;;;;;;;;0.90;99.90;;;;;;4861375;29;19928;-84
2022/02/26 07:21:57;;;;;;;;;;;0.70;99.90;;;;;;4844210;29;19928;-84
2022/02/26 07:24:31;;;;;;;;;;;-0.10;99.90;;;;;;4877454;29;19928;-84
2022/02/26 07:27:13;;;;;;;;;;;;;;;;;;;;;
2022/02/26 07:30:07;;;;;;;;;;;0.90;99.90;;;;;;4874623;29;19943;-83
2022/02/26 07:32:46;;;;;;;;;;;3.10;99.90;;;;;;4854862;29;19929;-83
2022/02/26 07:35:46;;;;;;;;;;;1.10;99.90;;;;;;4869528;29;19928;-85
2022/02/26 07:38:29;;;;;;;;;;;1.20;99.90;;;;;;4851080;29;19940;-88
2022/02/26 07:41:19;;;;;;;;;;;;;;;;;;;;;
2022/02/26 07:43:57;;;;;;;;;;;1.20;99.90;;;;;;4873498;29;19928;-83
2022/02/26 07:46:54;;;;;;;;;;;1.30;99.90;;;;;;4856301;29;19940;-85
2022/02/26 07:49:37;;;;;;;;;;;1.10;99.90;;;;;;4869908;29;19935;-85
2022/02/26 07:52:27;;;;;;;;;;;1.80;99.90;;;;;;4856439;29;20129;-84
2022/02/26 07:55:05;;;;;;;;;;;1.50;99.90;;;;;;4871480;29;19928;-85
2022/02/26 07:58:24;;;;;;;;;;;1.60;99.90;;;;;;4856072;29;19935;-83
2022/02/26 08:01:24;;;;;;;;;;;1.80;99.90;;;;;;4867901;29;19928;-85
2022/02/26 08:04:13;;;;;;;;;;;1.60;99.90;;;;;;4869649;29;19929;-84
2022/02/26 08:07:06;;;;;;;;;;;2.00;99.90;;;;;;4859070;29;19932;-87
2022/02/26 08:09:47;;;;;;;;;;;1.40;99.90;;;;;;4862315;29;19948;-85
2022/02/26 08:12:40;;;;;;;;;;;1.70;99.90;;;;;;4867225;29;19935;-83
2022/02/26 08:16:03;;;;;;;;;;;3.00;99.90;;;;;;4852159;29;19928;-86
2022/02/26 08:19:07;;;;;;;;;;;2.20;99.90;;;;;;4847500;29;19940;-84
2022/02/26 08:22:09;;;;;;;;;;;3.20;99.90;;;;;;4855181;29;19928;-84
2022/02/26 08:25:26;;;;;;;;;;;2.10;99.90;;;;;;4840355;29;20240;-85
2022/02/26 08:28:12;;;;;;;;;;;2.20;99.90;;;;;;4784027;29;19933;-84
2022/02/26 08:31:08;;;;;;;;;;;1.90;99.90;;;;;;4818806;29;19933;-84
2022/02/26 08:34:14;;;;;;;;;;;;;;;;;;;;;
2022/02/26 08:38:16;;;;;;;;;;;;;;;;;;;;;
2022/02/26 08:41:32;;;;;;;;;;;4.60;99.90;;;;;;4846904;29;19957;-85
2022/02/26 08:49:32;;;;;;;;;;;;;;;;;;;;;
2022/02/26 08:52:58;;;;;;;;;;;;;;;;;;;;;
2022/02/26 08:56:24;;;;;;;;;;;3.50;99.90;;;;;;4819339;29;19933;-85
2022/02/26 09:03:30;;;;;;;;;;;4.00;99.90;;;;;;4797566;29;19944;-83
2022/02/26 09:06:36;;;;;;;;;;;;;;;;;;;;;
2022/02/26 09:10:31;;;;;;;;;;;3.60;99.90;;;;;;4762466;30;19918;-86
2022/02/26 09:13:44;;;;;;;;;;;;;;;;;;;;;
2022/02/26 09:45:59;;;;;;;;;;;6.70;99.90;;;;;;4599894;31;19925;-84
2022/02/26 10:03:27;;;;;;;;;;;7.40;99.90;;;;;;5126953;27;19923;-82
2022/02/26 10:06:07;;;;;;;;;;;7.60;99.90;;;;;;5114605;28;20313;-86
2022/02/26 10:08:49;;;;;;;;;;;7.80;99.90;;;;;;5132397;27;19924;-90
2022/02/26 10:11:28;;;;;;;;;;;7.90;99.90;;;;;;5099627;27;20086;-85
2022/02/26 10:14:04;;;;;;;;;;;7.90;99.90;;;;;;5115948;28;20279;-82
2022/02/26 10:16:54;;;;;;;;;;;8.00;99.90;;;;;;5117424;28;19931;-83
2022/02/26 10:19:22;;;;;;;;;;;8.00;99.90;;;;;;5100783;28;19927;-84
2022/02/26 10:21:51;;;;;;;;;;;8.10;99.90;;;;;;5108124;28;20353;-83
2022/02/26 10:24:48;;;;;;;;;;;8.20;99.90;;;;;;5108542;28;19932;-85
2022/02/26 10:27:24;;;;;;;;;;;8.20;99.90;;;;;;5106642;28;19931;-86
2022/02/26 10:29:53;;;;;;;;;;;8.40;99.90;;;;;;5124141;27;19928;-88
2022/02/26 10:32:21;;;;;;;;;;;8.40;99.90;;;;;;5107998;28;19931;-88
2022/02/26 10:34:50;;;;;;;;;;;8.50;99.90;;;;;;5124216;28;19932;-85
2022/02/26 10:37:18;;;;;;;;;;;8.90;99.90;;;;;;5124787;28;19924;-86
2022/02/26 10:39:50;;;;;;;;;;;8.60;99.90;;;;;;5110189;28;19927;-83
2022/02/26 10:42:29;;;;;;;;;;;8.60;99.90;;;;;;5124740;27;20402;-85
2022/02/26 10:45:02;;;;;;;;;;;8.60;99.90;;;;;;5123788;28;19942;-83
2022/02/26 10:47:30;;;;;;;;;;;8.70;99.90;;;;;;5122874;27;19927;-85
2022/02/26 10:50:12;;;;;;;;;;;8.80;99.90;;;;;;5096850;28;19924;-88
2022/02/26 10:52:54;;;;;;;;;;;7.90;99.90;;;;;;5148217;27;19924;-89
2022/02/26 10:55:22;;;;;;;;;;;9.00;99.90;;;;;;5133271;22;19936;-83
2022/02/26 10:57:56;;;;;;;;;;;10.90;99.90;;;;;;5026398;28;20462;-85
2022/02/26 11:00:24;;;;;;;;;;;9.20;99.90;;;;;;5055577;28;19936;-87
2022/02/26 11:03:11;;;;;;;;;;;9.30;99.90;;;;;;5083114;28;19940;-85
2022/02/26 11:05:40;;;;;;;;;;;9.30;99.90;;;;;;5047171;28;20555;-84
2022/02/26 11:08:10;;;;;;;;;;;9.40;99.90;;;;;;5065051;28;19928;-89
2022/02/26 11:10:44;;;;;;;;;;;9.40;99.90;;;;;;5067057;28;19931;-85
2022/02/26 11:13:18;;;;;;;;;;;9.10;99.90;;;;;;5042647;28;20296;-87
2022/02/26 11:15:57;;;;;;;;;;;9.40;99.90;;;;;;5033013;28;19926;-83
2022/02/26 11:18:39;;;;;;;;;;;9.40;99.90;;;;;;5051544;28;19929;-87
2022/02/26 11:21:09;;;;;;;;;;;9.50;99.90;;;;;;5047686;28;19930;-85
2022/02/26 11:23:41;;;;;;;;;;;9.50;99.90;;;;;;5035279;28;19929;-84
2022/02/26 11:26:14;;;;;;;;;;;9.50;99.90;;;;;;5041825;28;19929;-84
2022/02/26 11:28:47;;;;;;;;;;;9.60;99.90;;;;;;5038865;28;19940;-84
2022/02/26 11:31:17;;;;;;;;;;;9.60;99.90;;;;;;5038454;28;19926;-83
2022/02/26 11:33:49;;;;;;;;;;;9.70;99.90;;;;;;5045897;28;19947;-82
2022/02/26 11:36:17;;;;;;;;;;;10.50;99.90;;;;;;5041735;28;19925;-87
2022/02/26 11:38:49;;;;;;;;;;;9.80;99.90;;;;;;5029505;28;19928;-84
2022/02/26 11:41:31;;;;;;;;;;;9.80;99.90;;;;;;4709793;28;10000531;-83
2022/02/26 11:44:03;;;;;;;;;;;10.00;99.90;;;;;;5019755;28;19936;-90
2022/02/26 11:46:36;;;;;;;;;;;9.90;99.90;;;;;;5038660;28;19925;-84
2022/02/26 11:49:25;;;;;;;;;;;9.90;99.90;;;;;;5056125;28;19932;-83
2022/02/26 11:51:54;;;;;;;;;;;10.00;99.90;;;;;;5055425;28;19940;-85
2022/02/26 11:54:23;;;;;;;;;;;10.00;99.90;;;;;;5052675;28;19930;-88
2022/02/26 11:56:56;;;;;;;;;;;10.20;99.90;;;;;;5055468;28;19933;-89
2022/02/26 11:59:42;;;;;;;;;;;10.30;99.90;;;;;;5025497;28;19936;-86
2022/02/26 12:02:11;;;;;;;;;;;10.90;99.90;;;;;;5063416;28;19930;-84
2022/02/26 12:04:43;;;;;;;;;;;10.30;99.90;;;;;;5048104;28;19940;-89
2022/02/26 12:07:39;;;;;;;;;;;12.00;99.90;;;;;;5045256;28;19933;-86
2022/02/26 12:10:13;;;;;;;;;;;10.70;99.90;;;;;;5029488;28;19932;-86
2022/02/26 12:12:45;;;;;;;;;;;10.80;99.90;;;;;;5030309;28;19925;-84
2022/02/26 12:15:13;;;;;;;;;;;10.40;99.80;;;;;;5032908;28;19932;-88
2022/02/26 12:18:09;;;;;;;;;;;10.80;99.80;;;;;;5028237;28;20296;-86
2022/02/26 12:20:37;;;;;;;;;;;10.90;99.90;;;;;;5031068;28;20705;-86
2022/02/26 12:23:08;;;;;;;;;;;11.10;99.90;;;;;;5031929;28;19936;-87
2022/02/26 12:25:43;;;;;;;;;;;11.20;99.60;;;;;;5019179;28;19936;-87
2022/02/26 12:28:14;;;;;;;;;;;11.40;99.40;;;;;;5049675;28;19933;-85
2022/02/26 12:31:00;;;;;;;;;;;11.30;98.10;;;;;;5036801;28;19925;-83
2022/02/26 12:33:41;;;;;;;;;;;11.30;98.90;;;;;;5033889;28;19932;-83
2022/02/26 12:36:10;;;;;;;;;;;11.30;98.10;;;;;;5018311;28;19929;-83
2022/02/26 12:38:47;;;;;;;;;;;11.40;98.40;;;;;;5033305;28;19933;-85
2022/02/26 12:41:36;;;;;;;;;;;13.80;99.20;;;;;;5034286;28;19936;-86
2022/02/26 12:44:31;;;;;;;;;;;11.40;98.60;;;;;;5033065;28;19936;-82
2022/02/26 12:47:00;;;;;;;;;;;11.50;98.50;;;;;;5045846;28;20124;-83
2022/02/26 12:49:28;;;;;;;;;;;11.50;98.40;;;;;;5026352;28;19925;-84
2022/02/26 12:52:23;;;;;;;;;;;11.50;98.90;;;;;;5048637;28;20082;-83
2022/02/26 12:55:03;;;;;;;;;;;11.50;98.50;;;;;;5002467;28;19925;-84
2022/02/26 12:57:38;;;;;;;;;;;11.40;97.90;;;;;;5055301;28;19929;-83
2022/02/26 13:01:00;;;;;;;;;;;11.40;98.30;;;;;;5033872;28;19925;-82
